Natures Way Challenger — WDF7294 — position and weather

sailwx.info

Track history (hours):
 
Tides and Currents Weather Stations Pressure Air Temp Water Temp Dewpoint Dewpoint Depression Visibility Wind Speed Wind Dir Waves Ship Positions

Natures Way Challenger

More information available from US FCC via Universal Licensing System and Coast Guard Vessel Documentation Center.

Last reported at 2014-Jul-31 12:08 UTC. Time now 2014-Aug-02 02:41 UTC.
Position N 30°02' W 091°16'.

Length 14 m.

Type: Towing. MMSI: 367483050.

Date/timePositionNaut miles runAvg speedWind from/ knotsBaromVisibWave heightAir tempDewpointWater temp
2014-Jul-31 12:08N 30°02' W 091°16'3 2.9
2014-Jul-31 11:16N 29°60' W 091°16'2 2.6
2014-Jul-31 10:33N 29°58' W 091°16'2 1.7
2014-Jul-31 09:33N 29°56' W 091°16'2 2.0
2014-Jul-31 08:31N 29°55' W 091°14'2 1.7
2014-Jul-31 07:26N 29°53' W 091°13'2 1.7
2014-Jul-31 06:33N 29°52' W 091°12'2 2.2
2014-Jul-31 05:33N 29°50' W 091°11'2 2.1
2014-Jul-31 04:34N 29°48' W 091°10'2 2.3
2014-Jul-31 03:34N 29°46' W 091°11'2 2.2
2014-Jul-31 02:34N 29°44' W 091°11'2 2.2
2014-Jul-31 01:34N 29°42' W 091°13'2 1.9
2014-Jul-31 00:34N 29°40' W 091°14'3 2.9
2014-Jul-30 23:33N 29°39' W 091°17'3 2.7
2014-Jul-30 22:34N 29°38' W 091°20'3 2.6
2014-Jul-30 21:22N 29°39' W 091°23'  
2014-Jul-27 08:34N 29°33' W 094°55'5 5.0
2014-Jul-27 07:34N 29°37' W 094°58'5 5.2
2014-Jul-27 06:34N 29°42' W 095°00'5 4.8
2014-Jul-27 05:33N 29°45' W 095°04'4 4.5
2014-Jul-27 04:34N 29°44' W 095°09'2 1.7
2014-Jul-27 03:33N 29°45' W 095°11'0 0.0
2014-Jul-27 02:34N 29°45' W 095°11'1 0.5
2014-Jul-27 01:34N 29°45' W 095°10'4 3.6
2014-Jul-27 00:34N 29°46' W 095°06'0 0.0
2014-Jul-26 23:34N 29°46' W 095°06'2 2.1
2014-Jul-26 22:34N 29°47' W 095°05'0 0.0
2014-Jul-26 21:34N 29°47' W 095°05'2 1.5
2014-Jul-26 20:29N 29°46' W 095°06'0 0.0
2014-Jul-26 19:21N 29°46' W 095°06'0 0.0
2014-Jul-26 18:33N 29°46' W 095°06'0 0.0
2014-Jul-26 17:34N 29°46' W 095°06'0 0.0
2014-Jul-26 16:33N 29°46' W 095°06'0 0.0
2014-Jul-26 15:33N 29°46' W 095°06'0 0.0
2014-Jul-26 14:33N 29°46' W 095°06'1 0.6
2014-Jul-26 13:33N 29°47' W 095°06'0 0.0
2014-Jul-26 12:33N 29°47' W 095°06'0 0.0
2014-Jul-26 11:33N 29°47' W 095°06'1 0.3
2014-Jul-26 09:34N 29°46' W 095°06'0 0.4
2014-Jul-26 08:34N 29°46' W 095°06'2 2.0
2014-Jul-26 07:34N 29°45' W 095°04'3 3.0
2014-Jul-26 06:33N 29°43' W 095°01'  
2014-Jul-22 12:20N 29°39' W 091°24'3 3.9
2014-Jul-22 11:33N 29°38' W 091°20'4 3.9
2014-Jul-22 10:33N 29°39' W 091°16'4 4.0
2014-Jul-22 09:33N 29°41' W 091°12'1 0.7
2014-Jul-22 08:33N 29°41' W 091°11'1 1.3
2014-Jul-22 07:33N 29°41' W 091°10'2 2.5
2014-Jul-22 06:33N 29°39' W 091°08'2 2.2
2014-Jul-22 05:33N 29°38' W 091°05'3 2.9
2014-Jul-22 04:27N 29°37' W 091°02'3 2.9
2014-Jul-22 03:29N 29°37' W 090°59'17 2.2
2014-Jul-21 19:53N 29°36' W 090°40'1 2.5
2014-Jul-21 19:34N 29°36' W 090°39'3 2.5
2014-Jul-21 18:32N 29°35' W 090°36'2 2.4
2014-Jul-21 17:33N 29°34' W 090°34'3 2.6
2014-Jul-21 16:33N 29°34' W 090°31'3 2.8
2014-Jul-21 15:33N 29°33' W 090°27'  
Track history (hours):
 
Tides and Currents Weather Stations Pressure Air Temp Water Temp Dewpoint Dewpoint Depression Visibility Wind Speed Wind Dir Waves Ship Positions

Natures Way Challenger

More information available from US FCC via Universal Licensing System and Coast Guard Vessel Documentation Center.

Last reported at 2014-Jul-31 12:08 UTC. Time now 2014-Aug-02 02:41 UTC.
Position N 30°02' W 091°16'.

Length 14 m.

Type: Towing. MMSI: 367483050.

Date/timePositionNaut miles runAvg speedWind from/ knotsBaromVisibWave heightAir tempDewpointWater temp
2014-Jul-31 12:08N 30°02' W 091°16'3 2.9
2014-Jul-31 11:16N 29°60' W 091°16'2 2.6
2014-Jul-31 10:33N 29°58' W 091°16'2 1.7
2014-Jul-31 09:33N 29°56' W 091°16'2 2.0
2014-Jul-31 08:31N 29°55' W 091°14'2 1.7
2014-Jul-31 07:26N 29°53' W 091°13'2 1.7
2014-Jul-31 06:33N 29°52' W 091°12'2 2.2
2014-Jul-31 05:33N 29°50' W 091°11'2 2.1
2014-Jul-31 04:34N 29°48' W 091°10'2 2.3
2014-Jul-31 03:34N 29°46' W 091°11'2 2.2
2014-Jul-31 02:34N 29°44' W 091°11'2 2.2
2014-Jul-31 01:34N 29°42' W 091°13'2 1.9
2014-Jul-31 00:34N 29°40' W 091°14'3 2.9
2014-Jul-30 23:33N 29°39' W 091°17'3 2.7
2014-Jul-30 22:34N 29°38' W 091°20'3 2.6
2014-Jul-30 21:22N 29°39' W 091°23'  
2014-Jul-27 08:34N 29°33' W 094°55'5 5.0
2014-Jul-27 07:34N 29°37' W 094°58'5 5.2
2014-Jul-27 06:34N 29°42' W 095°00'5 4.8
2014-Jul-27 05:33N 29°45' W 095°04'4 4.5
2014-Jul-27 04:34N 29°44' W 095°09'2 1.7
2014-Jul-27 03:33N 29°45' W 095°11'0 0.0
2014-Jul-27 02:34N 29°45' W 095°11'1 0.5
2014-Jul-27 01:34N 29°45' W 095°10'4 3.6
2014-Jul-27 00:34N 29°46' W 095°06'0 0.0
2014-Jul-26 23:34N 29°46' W 095°06'2 2.1
2014-Jul-26 22:34N 29°47' W 095°05'0 0.0
2014-Jul-26 21:34N 29°47' W 095°05'2 1.5
2014-Jul-26 20:29N 29°46' W 095°06'0 0.0
2014-Jul-26 19:21N 29°46' W 095°06'0 0.0
2014-Jul-26 18:33N 29°46' W 095°06'0 0.0
2014-Jul-26 17:34N 29°46' W 095°06'0 0.0
2014-Jul-26 16:33N 29°46' W 095°06'0 0.0
2014-Jul-26 15:33N 29°46' W 095°06'0 0.0
2014-Jul-26 14:33N 29°46' W 095°06'1 0.6
2014-Jul-26 13:33N 29°47' W 095°06'0 0.0
2014-Jul-26 12:33N 29°47' W 095°06'0 0.0
2014-Jul-26 11:33N 29°47' W 095°06'1 0.3
2014-Jul-26 09:34N 29°46' W 095°06'0 0.4
2014-Jul-26 08:34N 29°46' W 095°06'2 2.0
2014-Jul-26 07:34N 29°45' W 095°04'3 3.0
2014-Jul-26 06:33N 29°43' W 095°01'  
2014-Jul-22 12:20N 29°39' W 091°24'3 3.9
2014-Jul-22 11:33N 29°38' W 091°20'4 3.9
2014-Jul-22 10:33N 29°39' W 091°16'4 4.0
2014-Jul-22 09:33N 29°41' W 091°12'1 0.7
2014-Jul-22 08:33N 29°41' W 091°11'1 1.3
2014-Jul-22 07:33N 29°41' W 091°10'2 2.5
2014-Jul-22 06:33N 29°39' W 091°08'2 2.2
2014-Jul-22 05:33N 29°38' W 091°05'3 2.9
2014-Jul-22 04:27N 29°37' W 091°02'3 2.9
2014-Jul-22 03:29N 29°37' W 090°59'17 2.2
2014-Jul-21 19:53N 29°36' W 090°40'1 2.5
2014-Jul-21 19:34N 29°36' W 090°39'3 2.5
2014-Jul-21 18:32N 29°35' W 090°36'2 2.4
2014-Jul-21 17:33N 29°34' W 090°34'3 2.6
2014-Jul-21 16:33N 29°34' W 090°31'3 2.8
2014-Jul-21 15:33N 29°33' W 090°27'  

Dump ship's entire track history